Time;durP1;ratioP1;P1;durP2;ratioP2;P2;SDS_P1;SDS_P2;PMS_P1;PMS_P2;Temp;Humidity;BMP_temperature;BMP_pressure;BME280_temperature;BME280_humidity;BME280_pressure;Samples;Min_cycle;Max_cycle;Signal;HPM_P1;HPM_P2
2022/03/14 00:01:14;;;;;;;6.32;4.00;;;;;;;;;;5055553;28;20041;-67
2022/03/14 00:03:58;;;;;;;5.50;4.43;;;;;;;;;;5055538;28;20108;-67
2022/03/14 00:06:24;;;;;;;6.20;4.32;;;;;;;;;;5053488;28;20037;-68
2022/03/14 00:08:54;;;;;;;6.47;4.40;;;;;;;;;;5056085;28;20132;-68
2022/03/14 00:11:20;;;;;;;5.45;4.32;;;;;;;;;;5055639;28;20112;-68
2022/03/14 00:13:47;;;;;;;6.20;4.38;;;;;;;;;;5055965;28;20043;-67
2022/03/14 00:16:23;;;;;;;5.97;4.50;;;;;;;;;;5055600;28;20095;-68
2022/03/14 00:18:53;;;;;;;7.18;4.32;;;;;;;;;;5055513;28;20079;-67
2022/03/14 00:21:24;;;;;;;6.10;4.40;;;;;;;;;;5037084;28;20413;-67
2022/03/14 00:23:54;;;;;;;5.25;4.13;;;;;;;;;;5036988;28;20115;-68
2022/03/14 00:26:22;;;;;;;5.03;4.03;;;;;;;;;;5037472;28;20072;-68
2022/03/14 00:28:49;;;;;;;5.30;4.20;;;;;;;;;;5020851;28;20497;-67
2022/03/14 00:31:15;;;;;;;4.95;4.03;;;;;;;;;;5037302;28;20041;-68
2022/03/14 00:33:41;;;;;;;5.03;3.63;;;;;;;;;;5020578;28;20052;-68
2022/03/14 00:36:08;;;;;;;4.80;3.70;;;;;;;;;;5037511;28;20385;-67
2022/03/14 00:38:38;;;;;;;4.93;3.90;;;;;;;;;;5054667;28;20493;-67
2022/03/14 00:41:05;;;;;;;4.50;3.72;;;;;;;;;;5068634;28;20068;-67
2022/03/14 00:43:31;;;;;;;5.75;4.10;;;;;;;;;;5056621;28;20095;-67
2022/03/14 00:46:01;;;;;;;5.30;4.30;;;;;;;;;;5074786;28;20037;-68
2022/03/14 00:48:27;;;;;;;4.60;3.53;;;;;;;;;;5056251;28;20048;-67
2022/03/14 00:50:54;;;;;;;4.60;3.70;;;;;;;;;;5040149;28;20130;-67
2022/03/14 00:53:20;;;;;;;4.95;3.85;;;;;;;;;;5075019;28;20443;-67
2022/03/14 00:55:47;;;;;;;6.63;3.90;;;;;;;;;;5057085;28;20123;-67
2022/03/14 00:58:16;;;;;;;5.38;4.00;;;;;;;;;;5074844;28;20048;-67
2022/03/14 01:00:43;;;;;;;4.75;3.78;;;;;;;;;;5073924;28;20090;-68
2022/03/14 01:03:09;;;;;;;5.88;4.07;;;;;;;;;;5074596;28;20037;-67
2022/03/14 01:05:35;;;;;;;5.32;3.90;;;;;;;;;;5074783;28;20119;-67
2022/03/14 01:08:02;;;;;;;4.28;3.50;;;;;;;;;;5074436;28;20035;-67
2022/03/14 01:10:28;;;;;;;4.63;3.67;;;;;;;;;;5052866;28;20497;-67
2022/03/14 01:12:54;;;;;;;5.10;3.78;;;;;;;;;;5039262;28;20044;-67
2022/03/14 01:15:21;;;;;;;4.45;3.42;;;;;;;;;;5040058;28;20045;-67
2022/03/14 01:17:47;;;;;;;5.72;3.67;;;;;;;;;;5056162;28;20050;-67
2022/03/14 01:20:13;;;;;;;4.50;3.42;;;;;;;;;;5074367;28;20060;-67
2022/03/14 01:22:39;;;;;;;5.47;3.70;;;;;;;;;;5056176;28;20044;-68
2022/03/14 01:25:06;;;;;;;4.88;3.60;;;;;;;;;;5074315;28;20047;-67
2022/03/14 01:27:32;;;;;;;4.72;3.60;;;;;;;;;;5056512;28;20473;-67
2022/03/14 01:29:58;;;;;;;6.13;3.33;;;;;;;;;;5073449;28;20202;-67
2022/03/14 01:32:27;;;;;;;5.03;3.55;;;;;;;;;;5073690;28;20044;-67
2022/03/14 01:34:54;;;;;;;6.35;3.45;;;;;;;;;;5074278;28;20072;-67
2022/03/14 01:37:20;;;;;;;3.90;3.30;;;;;;;;;;5055765;28;20055;-67
2022/03/14 01:39:47;;;;;;;4.90;3.75;;;;;;;;;;5038882;28;20097;-67
2022/03/14 01:42:17;;;;;;;4.13;3.38;;;;;;;;;;5073514;28;20044;-68
2022/03/14 01:44:43;;;;;;;5.68;3.70;;;;;;;;;;5056147;28;20480;-67
2022/03/14 01:47:09;;;;;;;4.85;3.67;;;;;;;;;;5073906;28;20455;-67
2022/03/14 01:49:35;;;;;;;5.63;3.75;;;;;;;;;;5073898;28;20040;-67
2022/03/14 01:52:05;;;;;;;5.28;3.85;;;;;;;;;;5073367;28;20041;-67
2022/03/14 01:54:31;;;;;;;5.18;4.43;;;;;;;;;;5074292;28;20098;-67
2022/03/14 01:56:59;;;;;;;6.45;4.25;;;;;;;;;;5055813;28;20048;-67
2022/03/14 01:59:28;;;;;;;5.75;4.25;;;;;;;;;;5073508;28;20115;-67
2022/03/14 02:01:56;;;;;;;5.30;4.00;;;;;;;;;;5054860;28;20055;-67
2022/03/14 02:04:22;;;;;;;4.57;3.60;;;;;;;;;;5055823;28;20135;-67
2022/03/14 02:06:51;;;;;;;4.78;3.75;;;;;;;;;;5072696;28;20036;-67
2022/03/14 02:09:26;;;;;;;6.28;4.30;;;;;;;;;;5057105;28;20064;-67
2022/03/14 02:11:56;;;;;;;4.20;3.55;;;;;;;;;;5054800;28;20055;-67
2022/03/14 02:14:22;;;;;;;5.53;4.00;;;;;;;;;;5073290;28;20047;-67
2022/03/14 02:16:48;;;;;;;5.28;4.13;;;;;;;;;;5055571;28;20052;-67
2022/03/14 02:19:15;;;;;;;5.45;4.10;;;;;;;;;;5073043;28;20040;-67
2022/03/14 02:21:41;;;;;;;5.00;4.13;;;;;;;;;;5071773;28;20040;-67
2022/03/14 02:24:07;;;;;;;5.18;4.25;;;;;;;;;;5072236;28;20178;-67
2022/03/14 02:26:39;;;;;;;4.72;3.85;;;;;;;;;;5065528;28;20069;-67
2022/03/14 02:29:05;;;;;;;6.80;3.90;;;;;;;;;;5047615;28;20037;-67
2022/03/14 02:31:31;;;;;;;4.78;3.95;;;;;;;;;;5059889;28;20041;-68
2022/03/14 02:33:57;;;;;;;4.57;3.50;;;;;;;;;;5052213;28;20076;-67
2022/03/14 02:36:24;;;;;;;5.13;3.97;;;;;;;;;;5054735;28;20056;-67
2022/03/14 02:38:50;;;;;;;5.82;3.95;;;;;;;;;;5050887;28;20045;-67
2022/03/14 02:41:16;;;;;;;4.03;3.33;;;;;;;;;;5072027;28;20052;-67
2022/03/14 02:43:42;;;;;;;4.30;3.40;;;;;;;;;;5072724;28;20060;-68
2022/03/14 02:46:08;;;;;;;4.40;3.35;;;;;;;;;;5072820;28;20040;-68
2022/03/14 02:48:36;;;;;;;4.03;3.05;;;;;;;;;;5072801;28;20094;-67
2022/03/14 02:51:02;;;;;;;5.55;3.15;;;;;;;;;;5072736;28;20043;-67
2022/03/14 02:53:28;;;;;;;3.80;3.33;;;;;;;;;;5073011;28;20044;-68
2022/03/14 02:55:55;;;;;;;4.18;2.75;;;;;;;;;;5072650;28;20476;-67
2022/03/14 02:58:21;;;;;;;4.28;2.22;;;;;;;;;;5072838;28;20047;-67
2022/03/14 03:00:49;;;;;;;3.55;2.40;;;;;;;;;;5054527;28;20048;-67
2022/03/14 03:03:15;;;;;;;3.85;2.75;;;;;;;;;;5072234;28;20451;-67
2022/03/14 03:05:44;;;;;;;3.42;2.35;;;;;;;;;;5072662;28;20048;-67
2022/03/14 03:08:11;;;;;;;3.03;2.55;;;;;;;;;;5054848;28;20072;-67
2022/03/14 03:10:37;;;;;;;3.13;2.50;;;;;;;;;;5054564;28;20481;-67
2022/03/14 03:13:04;;;;;;;3.22;2.40;;;;;;;;;;5052884;28;20072;-67
2022/03/14 03:15:30;;;;;;;2.70;2.28;;;;;;;;;;5072621;28;20048;-67
2022/03/14 03:17:56;;;;;;;4.95;2.45;;;;;;;;;;5054388;28;20043;-67
2022/03/14 03:20:23;;;;;;;3.65;2.45;;;;;;;;;;5054629;28;20041;-67
2022/03/14 03:22:49;;;;;;;2.70;2.33;;;;;;;;;;5072222;28;20040;-67
2022/03/14 03:25:16;;;;;;;3.75;2.65;;;;;;;;;;5072170;28;20059;-67
2022/03/14 03:27:42;;;;;;;3.38;2.40;;;;;;;;;;5054410;28;20102;-67
2022/03/14 03:30:08;;;;;;;2.40;2.10;;;;;;;;;;5072312;28;20047;-67
2022/03/14 03:32:34;;;;;;;3.05;2.22;;;;;;;;;;5053354;28;20040;-67
2022/03/14 03:35:01;;;;;;;3.10;2.17;;;;;;;;;;5071054;28;20036;-67
2022/03/14 03:37:27;;;;;;;2.80;2.00;;;;;;;;;;5072346;28;20060;-67
2022/03/14 03:39:53;;;;;;;3.00;2.10;;;;;;;;;;5053388;28;20052;-67
2022/03/14 03:42:19;;;;;;;3.00;2.30;;;;;;;;;;5070815;28;20102;-67
2022/03/14 03:44:45;;;;;;;3.80;2.38;;;;;;;;;;5071540;28;20052;-67
2022/03/14 03:47:11;;;;;;;2.80;2.25;;;;;;;;;;5071138;28;20159;-67
2022/03/14 03:49:38;;;;;;;3.00;2.10;;;;;;;;;;5072418;28;20052;-67
2022/03/14 03:52:04;;;;;;;2.95;2.17;;;;;;;;;;5053900;28;20083;-67
2022/03/14 03:54:30;;;;;;;3.22;2.20;;;;;;;;;;5054008;28;20095;-67
2022/03/14 03:56:57;;;;;;;4.30;2.28;;;;;;;;;;5052417;28;20094;-67
2022/03/14 03:59:23;;;;;;;3.10;2.15;;;;;;;;;;5053918;28;20087;-67
2022/03/14 04:01:49;;;;;;;3.17;2.33;;;;;;;;;;5067311;28;20066;-67
2022/03/14 04:04:15;;;;;;;3.28;2.15;;;;;;;;;;5071616;28;20079;-67
2022/03/14 04:06:42;;;;;;;3.17;2.40;;;;;;;;;;5053885;28;20389;-67
2022/03/14 04:09:09;;;;;;;3.03;2.10;;;;;;;;;;5054004;28;20071;-67
2022/03/14 04:11:35;;;;;;;3.10;2.38;;;;;;;;;;5071310;28;20041;-67
2022/03/14 04:14:02;;;;;;;3.03;2.20;;;;;;;;;;5071922;28;20047;-67
2022/03/14 04:16:29;;;;;;;3.15;2.42;;;;;;;;;;5053931;28;20048;-67
2022/03/14 04:18:55;;;;;;;3.00;2.30;;;;;;;;;;5053959;28;20071;-67
2022/03/14 04:21:21;;;;;;;3.13;2.38;;;;;;;;;;5070736;28;20100;-67
2022/03/14 04:23:48;;;;;;;3.97;2.33;;;;;;;;;;5072202;28;20109;-67
2022/03/14 04:26:14;;;;;;;3.20;2.47;;;;;;;;;;5056666;28;20388;-67
2022/03/14 04:28:41;;;;;;;4.20;2.45;;;;;;;;;;5074827;28;20036;-67
2022/03/14 04:31:08;;;;;;;2.85;2.45;;;;;;;;;;5056574;28;20089;-67
2022/03/14 04:33:34;;;;;;;2.92;2.40;;;;;;;;;;5056735;28;20530;-67
2022/03/14 04:36:00;;;;;;;3.25;2.55;;;;;;;;;;5075518;28;20036;-67
2022/03/14 04:38:27;;;;;;;4.25;2.22;;;;;;;;;;5074909;28;20036;-67
2022/03/14 04:40:53;;;;;;;5.25;2.45;;;;;;;;;;5074780;28;20052;-67
2022/03/14 04:43:21;;;;;;;3.70;2.65;;;;;;;;;;5073809;28;20112;-67
2022/03/14 04:45:47;;;;;;;3.65;2.78;;;;;;;;;;5073955;28;20045;-68
2022/03/14 04:48:13;;;;;;;3.22;2.42;;;;;;;;;;5056677;28;20354;-67
2022/03/14 04:50:41;;;;;;;3.28;2.30;;;;;;;;;;5073915;28;20028;-67
2022/03/14 04:53:08;;;;;;;3.28;2.53;;;;;;;;;;5073003;28;20044;-67
2022/03/14 04:55:37;;;;;;;4.30;2.75;;;;;;;;;;5073795;28;20044;-67
2022/03/14 04:58:04;;;;;;;3.28;2.42;;;;;;;;;;5074731;28;20072;-67
2022/03/14 05:00:30;;;;;;;3.95;2.80;;;;;;;;;;5074948;28;20045;-67
2022/03/14 05:03:03;;;;;;;3.78;2.97;;;;;;;;;;5074346;28;20540;-67
2022/03/14 05:05:29;;;;;;;4.03;2.78;;;;;;;;;;5074393;28;20098;-67
2022/03/14 05:07:56;;;;;;;3.35;2.78;;;;;;;;;;5074268;28;20162;-67
2022/03/14 05:10:23;;;;;;;3.78;2.90;;;;;;;;;;5074719;28;20115;-67
2022/03/14 05:12:49;;;;;;;4.47;2.80;;;;;;;;;;5052486;28;20370;-67
2022/03/14 05:15:18;;;;;;;4.28;3.08;;;;;;;;;;5074670;28;20076;-67
2022/03/14 05:17:45;;;;;;;5.07;3.10;;;;;;;;;;5074518;28;20138;-67
2022/03/14 05:20:11;;;;;;;3.80;3.08;;;;;;;;;;5074666;28;20076;-67
2022/03/14 05:22:43;;;;;;;4.45;2.78;;;;;;;;;;5073828;28;20106;-67
2022/03/14 05:25:10;;;;;;;3.90;3.20;;;;;;;;;;5074462;28;20036;-67
2022/03/14 05:27:37;;;;;;;4.07;3.35;;;;;;;;;;5074434;28;20040;-67
2022/03/14 05:30:03;;;;;;;3.63;3.20;;;;;;;;;;5074304;28;20033;-67
2022/03/14 05:32:29;;;;;;;3.83;3.30;;;;;;;;;;5073540;28;20047;-67
2022/03/14 05:34:55;;;;;;;3.90;3.22;;;;;;;;;;5073308;28;20110;-67
2022/03/14 05:37:22;;;;;;;5.15;3.50;;;;;;;;;;5073366;28;20489;-67
2022/03/14 05:39:49;;;;;;;4.38;3.47;;;;;;;;;;5070708;28;20044;-67
2022/03/14 05:42:15;;;;;;;4.75;3.65;;;;;;;;;;5054205;28;20076;-67
2022/03/14 05:44:44;;;;;;;4.30;3.45;;;;;;;;;;5072965;28;20106;-67
2022/03/14 05:47:10;;;;;;;4.97;3.53;;;;;;;;;;5072745;28;20032;-67
2022/03/14 05:49:36;;;;;;;5.25;4.00;;;;;;;;;;5071947;28;20489;-67
2022/03/14 05:52:02;;;;;;;5.53;3.70;;;;;;;;;;5054921;28;20396;-67
2022/03/14 05:54:28;;;;;;;7.85;4.25;;;;;;;;;;5073846;28;20037;-67
2022/03/14 05:56:54;;;;;;;5.63;4.15;;;;;;;;;;5072454;28;20469;-67
2022/03/14 05:59:21;;;;;;;5.40;4.25;;;;;;;;;;5073382;28;20036;-67
2022/03/14 06:01:48;;;;;;;4.82;4.07;;;;;;;;;;5055022;28;20045;-67
2022/03/14 06:04:15;;;;;;;5.45;4.00;;;;;;;;;;5073831;28;20051;-67
2022/03/14 06:06:42;;;;;;;4.85;3.95;;;;;;;;;;5055266;28;20121;-67
2022/03/14 06:09:08;;;;;;;6.07;3.95;;;;;;;;;;5072437;28;20040;-67
2022/03/14 06:11:34;;;;;;;6.53;4.05;;;;;;;;;;5071421;28;20043;-68
2022/03/14 06:14:00;;;;;;;5.15;4.05;;;;;;;;;;5055016;28;20040;-67
2022/03/14 06:16:27;;;;;;;5.03;4.20;;;;;;;;;;5038124;28;20037;-67
2022/03/14 06:18:53;;;;;;;6.03;4.80;;;;;;;;;;5072204;28;20037;-68
2022/03/14 06:21:19;;;;;;;5.78;4.30;;;;;;;;;;5054550;28;20045;-69
2022/03/14 06:23:45;;;;;;;6.40;4.30;;;;;;;;;;5054756;28;20048;-67
2022/03/14 06:26:11;;;;;;;5.82;4.28;;;;;;;;;;5073216;28;20079;-67
2022/03/14 06:28:37;;;;;;;4.78;4.10;;;;;;;;;;5073127;28;20119;-67
2022/03/14 06:31:04;;;;;;;7.30;4.55;;;;;;;;;;5073104;28;20037;-68
2022/03/14 06:33:30;;;;;;;5.55;4.40;;;;;;;;;;5073044;28;20044;-67
2022/03/14 06:35:56;;;;;;;6.53;4.78;;;;;;;;;;5072802;28;20670;-67
2022/03/14 06:38:22;;;;;;;5.65;4.22;;;;;;;;;;5072913;28;20439;-67
2022/03/14 06:40:48;;;;;;;6.68;4.32;;;;;;;;;;5071894;28;20052;-67
2022/03/14 06:43:15;;;;;;;5.65;4.18;;;;;;;;;;5072984;28;20488;-67
2022/03/14 06:45:42;;;;;;;4.30;3.90;;;;;;;;;;5072894;28;20036;-66
2022/03/14 06:48:08;;;;;;;6.57;3.97;;;;;;;;;;5072644;28;20033;-66
2022/03/14 06:50:36;;;;;;;7.18;4.38;;;;;;;;;;5069535;28;20511;-66
2022/03/14 06:53:03;;;;;;;5.57;4.47;;;;;;;;;;5070776;28;20041;-66
2022/03/14 06:55:29;;;;;;;7.15;4.72;;;;;;;;;;5052535;28;20047;-66
2022/03/14 06:57:55;;;;;;;6.32;4.50;;;;;;;;;;5072747;28;20139;-66
2022/03/14 07:00:21;;;;;;;5.68;4.40;;;;;;;;;;5072775;28;20153;-66
2022/03/14 07:02:47;;;;;;;5.32;4.30;;;;;;;;;;5071544;28;20374;-66
2022/03/14 07:05:20;;;;;;;6.13;4.35;;;;;;;;;;5053243;28;20051;-66
2022/03/14 07:07:46;;;;;;;6.30;4.70;;;;;;;;;;5072769;28;20079;-66
2022/03/14 07:10:13;;;;;;;9.30;5.25;;;;;;;;;;5072541;28;20041;-66
2022/03/14 07:12:45;;;;;;;6.88;4.95;;;;;;;;;;5070075;28;20036;-67
2022/03/14 07:15:15;;;;;;;8.07;5.00;;;;;;;;;;5072369;28;20051;-67
2022/03/14 07:17:41;;;;;;;7.18;5.30;;;;;;;;;;5072064;28;20042;-67
2022/03/14 07:20:07;;;;;;;5.90;5.10;;;;;;;;;;5070514;28;20047;-67
2022/03/14 07:22:37;;;;;;;5.63;5.03;;;;;;;;;;5053311;28;20535;-67
2022/03/14 07:25:06;;;;;;;5.75;4.95;;;;;;;;;;5070148;28;20477;-67
2022/03/14 07:27:33;;;;;;;7.38;5.28;;;;;;;;;;5071550;28;20041;-67
2022/03/14 07:29:59;;;;;;;6.88;5.55;;;;;;;;;;5053988;28;20045;-67
2022/03/14 07:32:25;;;;;;;8.20;5.68;;;;;;;;;;5072455;28;20052;-67
2022/03/14 07:34:52;;;;;;;7.05;5.28;;;;;;;;;;5071840;28;20097;-67
2022/03/14 07:37:18;;;;;;;6.68;5.20;;;;;;;;;;5072146;28;20037;-67
2022/03/14 07:39:44;;;;;;;7.00;5.45;;;;;;;;;;5072073;28;20047;-67
2022/03/14 07:42:10;;;;;;;7.38;5.40;;;;;;;;;;5072382;28;20052;-68
2022/03/14 07:44:36;;;;;;;7.47;5.95;;;;;;;;;;5069629;28;20120;-67
2022/03/14 07:47:06;;;;;;;8.15;6.22;;;;;;;;;;5070290;28;20041;-67
2022/03/14 07:49:32;;;;;;;9.25;6.35;;;;;;;;;;5053458;28;20067;-67
2022/03/14 07:51:58;;;;;;;9.35;7.22;;;;;;;;;;5053799;28;20488;-67
2022/03/14 07:54:25;;;;;;;11.82;7.50;;;;;;;;;;5065790;28;20557;-67
2022/03/14 07:56:51;;;;;;;9.57;8.05;;;;;;;;;;5071373;28;20396;-67
2022/03/14 07:59:17;;;;;;;11.80;9.00;;;;;;;;;;5072118;28;20037;-67
2022/03/14 08:01:43;;;;;;;13.18;10.20;;;;;;;;;;5046821;28;20045;-67
2022/03/14 08:04:09;;;;;;;12.57;10.23;;;;;;;;;;5057887;28;20488;-67
2022/03/14 08:06:41;;;;;;;12.23;9.95;;;;;;;;;;5057673;28;20079;-67
2022/03/14 08:09:08;;;;;;;13.77;10.40;;;;;;;;;;5075818;28;20037;-67
2022/03/14 08:11:35;;;;;;;13.20;10.30;;;;;;;;;;5073444;28;20040;-67
2022/03/14 08:14:02;;;;;;;13.55;10.77;;;;;;;;;;5048270;28;20045;-67
2022/03/14 08:16:28;;;;;;;15.27;11.48;;;;;;;;;;5054358;28;20051;-67
2022/03/14 08:18:54;;;;;;;15.95;12.40;;;;;;;;;;5073951;28;20561;-67
2022/03/14 08:21:21;;;;;;;15.60;12.02;;;;;;;;;;5057505;28;20045;-67
2022/03/14 08:23:47;;;;;;;15.38;11.40;;;;;;;;;;5057103;28;20400;-66
2022/03/14 08:26:13;;;;;;;15.77;12.73;;;;;;;;;;5057080;28;20040;-67
2022/03/14 08:28:41;;;;;;;18.15;12.93;;;;;;;;;;5075785;28;20036;-67
2022/03/14 08:31:07;;;;;;;16.65;11.52;;;;;;;;;;5072971;28;20032;-67
2022/03/14 08:33:34;;;;;;;18.55;11.90;;;;;;;;;;5040653;28;20083;-66
2022/03/14 08:36:02;;;;;;;17.98;11.35;;;;;;;;;;5074855;28;20040;-67
2022/03/14 08:38:28;;;;;;;14.30;11.10;;;;;;;;;;5057292;28;20183;-67
2022/03/14 08:40:54;;;;;;;15.88;11.02;;;;;;;;;;5075047;28;20109;-67
2022/03/14 08:43:20;;;;;;;18.75;11.48;;;;;;;;;;5073396;28;20052;-67
2022/03/14 08:45:46;;;;;;;17.48;11.75;;;;;;;;;;5072842;28;20039;-67
2022/03/14 08:48:12;;;;;;;21.90;13.90;;;;;;;;;;5075190;28;20040;-66
2022/03/14 08:50:40;;;;;;;22.67;13.48;;;;;;;;;;5041467;28;20048;-67
2022/03/14 08:53:07;;;;;;;18.30;12.18;;;;;;;;;;5069334;28;20048;-66
2022/03/14 08:55:33;;;;;;;20.65;12.80;;;;;;;;;;5050010;28;20390;-70
2022/03/14 08:57:59;;;;;;;19.83;11.90;;;;;;;;;;5048042;28;20107;-71
2022/03/14 09:00:27;;;;;;;20.85;11.43;;;;;;;;;;5048765;28;20075;-72
2022/03/14 09:02:54;;;;;;;15.77;10.45;;;;;;;;;;5050887;28;20113;-71
2022/03/14 09:05:20;;;;;;;14.70;10.30;;;;;;;;;;5052245;28;20484;-71
2022/03/14 09:07:47;;;;;;;17.77;9.85;;;;;;;;;;5052254;28;20075;-71
2022/03/14 09:10:13;;;;;;;16.50;9.02;;;;;;;;;;5052221;28;20072;-71
2022/03/14 09:12:42;;;;;;;15.68;7.78;;;;;;;;;;5052074;28;20040;-71
2022/03/14 09:15:09;;;;;;;11.73;6.85;;;;;;;;;;5052514;28;20473;-71
2022/03/14 09:17:35;;;;;;;11.40;7.15;;;;;;;;;;5051145;28;20053;-71
2022/03/14 09:20:03;;;;;;;15.85;6.90;;;;;;;;;;5053457;28;20056;-71
2022/03/14 09:22:29;;;;;;;11.90;6.40;;;;;;;;;;5053878;28;20044;-71
2022/03/14 09:24:55;;;;;;;13.98;5.72;;;;;;;;;;5053661;28;20064;-71
2022/03/14 09:27:23;;;;;;;11.52;5.57;;;;;;;;;;5050478;28;20389;-71
2022/03/14 09:29:50;;;;;;;15.70;5.25;;;;;;;;;;5050448;28;20043;-72
2022/03/14 09:32:16;;;;;;;10.15;4.60;;;;;;;;;;5051038;28;20043;-72
2022/03/14 09:34:42;;;;;;;13.85;5.10;;;;;;;;;;5052907;28;20214;-71
2022/03/14 09:37:08;;;;;;;10.60;4.72;;;;;;;;;;5052984;28;20052;-71
2022/03/14 09:39:34;;;;;;;8.60;3.95;;;;;;;;;;5071374;28;20173;-72
2022/03/14 09:42:04;;;;;;;13.20;4.05;;;;;;;;;;5052292;28;20405;-72
2022/03/14 09:44:30;;;;;;;9.23;3.40;;;;;;;;;;5052551;28;20055;-72
2022/03/14 09:47:01;;;;;;;9.23;3.78;;;;;;;;;;5052425;28;20048;-71
2022/03/14 09:49:27;;;;;;;10.88;2.97;;;;;;;;;;5051928;28;20174;-71
2022/03/14 09:51:54;;;;;;;11.15;3.60;;;;;;;;;;5052054;28;20048;-72
2022/03/14 09:54:23;;;;;;;10.90;3.38;;;;;;;;;;5070588;28;20465;-71
2022/03/14 09:56:49;;;;;;;8.32;3.08;;;;;;;;;;5052981;28;20040;-71
2022/03/14 09:59:15;;;;;;;10.95;3.13;;;;;;;;;;5053614;28;20055;-71
2022/03/14 10:01:42;;;;;;;6.75;2.75;;;;;;;;;;5052719;28;20079;-72
2022/03/14 10:04:08;;;;;;;8.88;3.25;;;;;;;;;;5051006;28;20473;-71
2022/03/14 10:06:36;;;;;;;10.63;3.30;;;;;;;;;;5070350;28;20124;-71
2022/03/14 10:09:03;;;;;;;10.50;3.75;;;;;;;;;;5052207;28;20444;-71
2022/03/14 10:11:29;;;;;;;9.43;3.88;;;;;;;;;;5051824;28;20080;-71
2022/03/14 10:13:56;;;;;;;13.43;4.88;;;;;;;;;;5070353;28;20032;-71
2022/03/14 10:16:22;;;;;;;8.68;3.58;;;;;;;;;;5051712;28;20033;-71
2022/03/14 10:19:10;;;;;;;10.80;3.63;;;;;;;;;;5051198;28;20119;-71
2022/03/14 10:21:37;;;;;;;10.23;3.58;;;;;;;;;;5049637;28;20468;-74
2022/03/14 10:24:08;;;;;;;11.95;3.67;;;;;;;;;;5051174;28;20468;-72
2022/03/14 10:26:34;;;;;;;12.32;3.40;;;;;;;;;;5051735;28;20067;-72
2022/03/14 10:29:03;;;;;;;12.60;3.45;;;;;;;;;;5050196;28;20051;-72
2022/03/14 10:31:37;;;;;;;12.27;3.30;;;;;;;;;;5051200;28;20040;-72
2022/03/14 10:34:04;;;;;;;9.43;2.92;;;;;;;;;;5050895;28;20037;-72
2022/03/14 10:36:47;;;;;;;10.25;3.75;;;;;;;;;;5051735;28;20373;-72
2022/03/14 10:39:13;;;;;;;12.38;3.58;;;;;;;;;;5050884;28;20028;-72
2022/03/14 10:41:40;;;;;;;10.63;3.63;;;;;;;;;;5046935;28;20045;-72
2022/03/14 10:44:07;;;;;;;10.95;3.45;;;;;;;;;;5045622;28;20718;-72
2022/03/14 10:46:37;;;;;;;10.40;3.40;;;;;;;;;;5048589;28;20033;-73
2022/03/14 10:49:09;;;;;;;9.25;3.10;;;;;;;;;;5046388;28;20037;-72
2022/03/14 10:51:51;;;;;;;9.57;3.40;;;;;;;;;;5045671;28;20497;-71
2022/03/14 10:54:17;;;;;;;9.68;3.75;;;;;;;;;;5048045;28;20033;-72
2022/03/14 10:56:59;;;;;;;11.27;3.78;;;;;;;;;;5048343;28;20048;-71
2022/03/14 10:59:41;;;;;;;11.90;3.90;;;;;;;;;;5048117;28;20613;-72
2022/03/14 11:02:09;;;;;;;11.23;4.80;;;;;;;;;;5048208;28;20044;-72
2022/03/14 11:04:42;;;;;;;15.07;5.00;;;;;;;;;;5047729;28;20041;-71
2022/03/14 11:07:08;;;;;;;11.93;5.40;;;;;;;;;;5048118;28;20083;-72
2022/03/14 11:09:48;;;;;;;13.82;5.20;;;;;;;;;;5046709;28;20477;-72
2022/03/14 11:12:15;;;;;;;11.95;5.72;;;;;;;;;;5047028;28;20061;-72
2022/03/14 11:14:42;;;;;;;13.35;6.15;;;;;;;;;;5046211;28;20087;-72
2022/03/14 11:17:11;;;;;;;12.25;6.60;;;;;;;;;;5046663;28;20088;-71
2022/03/14 11:19:39;;;;;;;15.50;8.25;;;;;;;;;;5046177;28;20043;-71
2022/03/14 11:22:10;;;;;;;11.80;7.13;;;;;;;;;;5044966;28;20045;-72
2022/03/14 11:24:39;;;;;;;14.55;8.27;;;;;;;;;;5031191;28;20056;-71
2022/03/14 11:27:05;;;;;;;13.48;7.80;;;;;;;;;;5046739;28;20448;-72
2022/03/14 11:29:33;;;;;;;13.15;8.52;;;;;;;;;;5047003;28;20041;-72
2022/03/14 11:32:00;;;;;;;15.98;8.35;;;;;;;;;;5046879;28;20063;-72
2022/03/14 11:34:29;;;;;;;13.73;8.40;;;;;;;;;;5049856;28;20040;-72
2022/03/14 11:36:57;;;;;;;17.67;9.10;;;;;;;;;;5052208;28;20072;-71
2022/03/14 11:39:27;;;;;;;16.65;10.10;;;;;;;;;;5051799;28;20087;-71
2022/03/14 11:41:55;;;;;;;16.85;9.98;;;;;;;;;;5049362;28;20049;-72
2022/03/14 11:44:22;;;;;;;18.25;10.05;;;;;;;;;;5035045;28;20282;-72
2022/03/14 11:46:48;;;;;;;18.58;9.95;;;;;;;;;;5050310;28;20090;-71
2022/03/14 11:49:16;;;;;;;15.68;10.57;;;;;;;;;;5049977;28;20041;-72
2022/03/14 11:51:42;;;;;;;15.05;10.50;;;;;;;;;;5049593;28;20462;-72
2022/03/14 11:54:10;;;;;;;14.48;11.05;;;;;;;;;;5048211;28;20043;-70
2022/03/14 11:56:39;;;;;;;18.13;12.10;;;;;;;;;;5049829;28;20470;-72
2022/03/14 11:59:09;;;;;;;20.42;13.13;;;;;;;;;;5048966;28;20049;-71
2022/03/14 12:01:47;;;;;;;18.88;12.18;;;;;;;;;;5046910;28;20091;-72
2022/03/14 12:04:27;;;;;;;20.15;12.23;;;;;;;;;;5027246;28;20049;-72
2022/03/14 12:06:54;;;;;;;17.85;10.85;;;;;;;;;;5045875;28;20080;-71
2022/03/14 12:09:27;;;;;;;20.67;10.85;;;;;;;;;;5030761;28;20124;-72
2022/03/14 12:11:54;;;;;;;20.52;11.57;;;;;;;;;;5049383;28;20143;-71
2022/03/14 12:14:39;;;;;;;17.08;11.10;;;;;;;;;;5048912;28;20136;-71
2022/03/14 12:17:23;;;;;;;20.27;10.90;;;;;;;;;;5048058;28;20063;-71
2022/03/14 12:19:55;;;;;;;16.15;10.55;;;;;;;;;;5047634;28;20520;-71
2022/03/14 12:22:27;;;;;;;17.35;11.05;;;;;;;;;;5049562;28;20049;-72
2022/03/14 12:24:53;;;;;;;19.02;10.68;;;;;;;;;;5049693;28;20048;-71
2022/03/14 12:27:26;;;;;;;19.00;11.20;;;;;;;;;;5049666;28;20048;-72
2022/03/14 12:29:54;;;;;;;15.43;9.88;;;;;;;;;;5047736;28;20048;-71
2022/03/14 12:32:36;;;;;;;17.48;10.88;;;;;;;;;;5049044;28;20059;-72
2022/03/14 12:35:07;;;;;;;14.50;9.30;;;;;;;;;;5048078;28;20076;-72
2022/03/14 12:37:36;;;;;;;17.00;8.73;;;;;;;;;;5048943;28;20493;-71
2022/03/14 12:40:35;;;;;;;22.90;8.70;;;;;;;;;;5047473;28;20033;-71
2022/03/14 12:43:01;;;;;;;16.20;8.45;;;;;;;;;;5031157;28;20078;-72
2022/03/14 12:45:31;;;;;;;16.63;9.40;;;;;;;;;;5030423;28;20116;-71
2022/03/14 12:48:05;;;;;;;13.30;9.32;;;;;;;;;;5030477;28;20033;-71
2022/03/14 12:50:43;;;;;;;20.02;9.98;;;;;;;;;;5029945;28;20057;-72
2022/03/14 12:53:10;;;;;;;16.98;8.95;;;;;;;;;;5032592;28;20041;-72
2022/03/14 12:55:42;;;;;;;14.15;7.60;;;;;;;;;;5031052;28;20040;-72
2022/03/14 12:58:09;;;;;;;15.80;7.50;;;;;;;;;;5029716;28;20124;-72
2022/03/14 13:00:38;;;;;;;13.13;6.72;;;;;;;;;;5031432;28;20046;-72
2022/03/14 13:03:06;;;;;;;18.13;7.53;;;;;;;;;;5027496;28;20087;-73
2022/03/14 13:05:32;;;;;;;21.75;8.30;;;;;;;;;;5029801;28;20071;-72
2022/03/14 13:08:03;;;;;;;16.58;7.78;;;;;;;;;;5029793;28;20044;-72
2022/03/14 13:10:48;;;;;;;14.52;6.95;;;;;;;;;;5031734;28;20039;-72
2022/03/14 13:13:22;;;;;;;17.75;9.25;;;;;;;;;;5029841;28;20057;-72
2022/03/14 13:16:01;;;;;;;17.65;8.80;;;;;;;;;;5029952;28;20047;-71
2022/03/14 13:18:28;;;;;;;17.05;8.57;;;;;;;;;;5047516;28;20091;-72
2022/03/14 13:20:54;;;;;;;14.50;7.53;;;;;;;;;;5031181;28;20492;-71
2022/03/14 13:23:20;;;;;;;19.00;7.90;;;;;;;;;;5029575;28;20057;-72
2022/03/14 13:25:48;;;;;;;16.50;7.72;;;;;;;;;;5030697;28;20501;-71
2022/03/14 13:28:32;;;;;;;20.95;8.73;;;;;;;;;;5029973;28;20560;-72
2022/03/14 13:30:59;;;;;;;15.15;7.10;;;;;;;;;;5031584;28;20388;-72
2022/03/14 13:33:31;;;;;;;19.05;7.70;;;;;;;;;;5032043;28;20099;-71
2022/03/14 13:35:59;;;;;;;12.00;6.70;;;;;;;;;;5031631;28;20130;-72
2022/03/14 13:38:29;;;;;;;20.42;8.27;;;;;;;;;;5028992;28;20409;-72
2022/03/14 13:40:55;;;;;;;16.92;8.38;;;;;;;;;;5035703;28;20064;-71
2022/03/14 13:43:22;;;;;;;16.38;7.88;;;;;;;;;;5051093;28;20052;-71
2022/03/14 13:45:48;;;;;;;17.15;7.28;;;;;;;;;;5048372;28;20111;-73
2022/03/14 13:48:23;;;;;;;12.07;5.93;;;;;;;;;;5048156;28;20072;-72
2022/03/14 13:50:50;;;;;;;16.27;6.25;;;;;;;;;;5050646;28;20049;-71
2022/03/14 13:53:20;;;;;;;13.68;5.85;;;;;;;;;;5034208;28;20545;-71
2022/03/14 13:55:53;;;;;;;17.92;6.10;;;;;;;;;;5069069;28;20036;-71
2022/03/14 13:58:26;;;;;;;12.75;6.10;;;;;;;;;;5051359;28;20836;-71
2022/03/14 14:00:55;;;;;;;15.13;6.50;;;;;;;;;;5051822;28;20048;-71
2022/03/14 14:03:24;;;;;;;16.60;7.05;;;;;;;;;;5050562;28;20044;-71
2022/03/14 14:05:51;;;;;;;17.67;7.35;;;;;;;;;;5050880;28;20083;-72
2022/03/14 14:08:34;;;;;;;19.23;7.57;;;;;;;;;;5049261;28;20044;-71
2022/03/14 14:11:00;;;;;;;18.92;8.52;;;;;;;;;;5048293;28;20032;-70
2022/03/14 14:13:46;;;;;;;20.58;7.43;;;;;;;;;;5051820;28;20071;-71
2022/03/14 14:16:19;;;;;;;17.58;7.45;;;;;;;;;;5049037;28;20496;-71
2022/03/14 14:18:45;;;;;;;16.25;6.20;;;;;;;;;;5050165;28;20501;-70
2022/03/14 14:21:23;;;;;;;19.02;6.80;;;;;;;;;;5049942;28;20097;-71
2022/03/14 14:23:52;;;;;;;15.63;6.10;;;;;;;;;;5048793;28;20051;-71
2022/03/14 14:26:29;;;;;;;16.85;5.50;;;;;;;;;;5049864;28;20527;-71
2022/03/14 14:28:55;;;;;;;18.13;5.82;;;;;;;;;;5049471;28;20496;-71
2022/03/14 14:31:21;;;;;;;10.48;5.05;;;;;;;;;;5049165;28;20044;-70
2022/03/14 14:33:47;;;;;;;15.85;5.32;;;;;;;;;;5050120;28;20083;-70
2022/03/14 14:36:13;;;;;;;17.42;5.63;;;;;;;;;;5050667;28;20361;-71
2022/03/14 14:38:39;;;;;;;13.40;5.78;;;;;;;;;;5047304;28;20044;-70
2022/03/14 14:41:09;;;;;;;17.15;6.07;;;;;;;;;;5068017;28;20048;-71